Главная страница
METAR-TAF:

METAR-TAF

Аэропорты :

Багдад, Ирак

широта: 33-15-45N, долгота: 44-14-04E, высота над уровнем моря: 35 м

Текущие метеонаблюдения

Эта сводка был подготовлена 34 минут назад, в 13:00 UTC
Ветер 12 Узел от западный-юго-западный
Температура 42°C
Влажность 14%
Давление 997 hPa
Видимость 10 км и более
Нет облачности ниже 1500 м, и нет кучево-дождевой облачности

METAR: ORBI 141300Z 25012KT CAVOK 42/09 Q0997 NOSIG

Время: 16:34 (13:34 UTC)

Прогноз

Эта сводка был подготовлена 3 часа и 34 минут назад, в 10:00 UTC
Прогноз действительный с 14-го 12 UTC до 15-го 12 UTC
Ветер 12 Узел от западный
Видимость: 8000 м

TAF: ORBI 141000Z 1412/1512 28012KT 8000 NSC

Метеонаблюдения и прогнозы для более 4000 аэропортов (сводки METAR и TAF).

Имеющиеся станции представлены на карте желтыми и красными точками.

Чтобы увидеть название станции, наведите на нее мышь.

Затем щелкните, чтобы увидеть метеонаблюдения и метеопрогнозы.

Управление картой: чтобы увеличить масштаб, щелкните зеленые кнопки с черным крестиком; чтобы уменьшить масштаб, щелкните зеленую кнопку с тире; для просмотра соседних карт щелкайте зеленые стрелки.


METAR-TAF: